Time;durP1;ratioP1;P1;durP2;ratioP2;P2;SDS_P1;SDS_P2;PMS_P1;PMS_P2;Temp;Humidity;BMP_temperature;BMP_pressure;BME280_temperature;BME280_humidity;BME280_pressure;Samples;Min_cycle;Max_cycle;Signal;HPM_P1;HPM_P2
2023/03/02 00:01:55;;;;;;;136.10;48.70;;;;;;;-4.11;72.49;99347.66;104652;1273;98704;-65
2023/03/02 00:04:41;;;;;;;142.30;48.30;;;;;;;-4.21;72.42;99347.86;104884;1262;108906;-68
2023/03/02 00:07:13;;;;;;;128.90;46.50;;;;;;;-4.30;72.66;99348.17;104692;1263;97918;-65
2023/03/02 00:09:41;;;;;;;145.50;49.10;;;;;;;-4.34;72.60;99352.30;104887;1264;98227;-65
2023/03/02 00:12:10;;;;;;;144.40;49.90;;;;;;;-4.39;72.63;99350.96;104643;1276;110307;-65
2023/03/02 00:14:37;;;;;;;163.00;53.00;;;;;;;-4.44;72.95;99350.76;104893;1264;99435;-65
2023/03/02 00:17:06;;;;;;;158.60;55.50;;;;;;;-4.50;72.98;99347.77;104722;1262;98019;-65
2023/03/02 00:19:35;;;;;;;167.60;56.60;;;;;;;-4.56;73.27;99346.30;104774;1267;98265;-64
2023/03/02 00:22:03;;;;;;;170.90;55.10;;;;;;;-4.59;73.47;99349.46;104829;1271;98191;-65
2023/03/02 00:24:30;;;;;;;157.10;53.30;;;;;;;-4.64;73.42;99345.39;104902;1263;112199;-65
2023/03/02 00:26:57;;;;;;;149.80;52.40;;;;;;;-4.69;73.73;99345.98;104815;1271;98519;-65
2023/03/02 00:29:24;;;;;;;153.40;54.40;;;;;;;-4.72;74.12;99344.81;104708;1262;98026;-65
2023/03/02 00:31:51;;;;;;;168.40;55.50;;;;;;;-4.75;74.15;99344.27;104541;1271;98791;-64
2023/03/02 00:34:18;;;;;;;176.00;59.20;;;;;;;-4.79;74.04;99343.58;104766;1271;97943;-65
2023/03/02 00:36:55;;;;;;;184.80;62.70;;;;;;;-4.83;74.26;99339.60;104835;1257;112181;-65
2023/03/02 00:39:23;;;;;;;180.60;64.90;;;;;;;-4.81;74.36;99340.19;104769;1281;99097;-65
2023/03/02 00:41:50;;;;;;;171.60;63.10;;;;;;;-4.76;74.29;99337.73;104589;1259;99195;-64
2023/03/02 00:44:17;;;;;;;177.80;61.90;;;;;;;-4.74;74.13;99341.70;104689;1262;98837;-64
2023/03/02 00:46:44;;;;;;;177.00;59.90;;;;;;;-4.72;74.12;99337.56;104811;1263;97880;-64
2023/03/02 00:49:12;;;;;;;174.70;58.00;;;;;;;-4.68;74.17;99338.08;104599;1263;97922;-64
2023/03/02 00:51:39;;;;;;;159.80;58.40;;;;;;;-4.67;73.86;99334.48;104766;1271;98449;-64
2023/03/02 00:54:06;;;;;;;170.80;58.70;;;;;;;-4.65;73.84;99334.44;104878;1271;99192;-64
2023/03/02 00:56:33;;;;;;;173.20;57.80;;;;;;;-4.60;73.84;99333.36;104412;1263;97973;-64
2023/03/02 00:59:05;;;;;;;155.50;54.60;;;;;;;-4.56;73.81;99332.27;104785;1273;97995;-64
2023/03/02 01:01:32;;;;;;;170.40;56.60;;;;;;;-4.50;73.88;99332.13;104714;1264;112756;-66
2023/03/02 01:04:00;;;;;;;172.00;62.40;;;;;;;-4.52;73.76;99324.06;104546;1272;223448;-66
2023/03/02 01:06:27;;;;;;;168.50;58.50;;;;;;;-4.57;73.76;99321.70;104891;1271;97934;-66
2023/03/02 01:08:54;;;;;;;158.70;59.40;;;;;;;-4.64;74.01;99317.20;104919;1274;97998;-65
2023/03/02 01:11:21;;;;;;;171.80;58.00;;;;;;;-4.71;74.40;99314.48;104799;1264;98708;-65
2023/03/02 01:13:49;;;;;;;179.50;60.40;;;;;;;-4.75;74.53;99308.25;104933;1257;97926;-65
2023/03/02 01:16:17;;;;;;;174.00;60.40;;;;;;;-4.79;74.52;99307.50;104782;1264;99205;-65
2023/03/02 01:18:44;;;;;;;170.10;57.00;;;;;;;-4.84;74.56;99304.48;104761;1263;99191;-65
2023/03/02 01:21:14;;;;;;;164.20;57.00;;;;;;;-4.90;74.59;99308.29;104911;1257;99234;-65
2023/03/02 01:23:41;;;;;;;187.70;63.10;;;;;;;-4.96;74.79;99305.08;104664;1272;99834;-65
2023/03/02 01:26:08;;;;;;;182.50;61.90;;;;;;;-5.02;74.79;99301.88;104577;1268;98358;-65
2023/03/02 01:28:36;;;;;;;161.80;58.90;;;;;;;-5.05;74.96;99300.82;104487;1264;98018;-65
2023/03/02 01:31:04;;;;;;;174.40;61.20;;;;;;;-5.09;75.03;99293.79;104803;1272;97938;-65
2023/03/02 01:33:31;;;;;;;174.70;58.50;;;;;;;-5.11;75.11;99293.52;104706;1267;98698;-66
2023/03/02 01:35:59;;;;;;;168.60;57.50;;;;;;;-5.15;75.06;99290.69;104627;1263;99687;-65
2023/03/02 01:38:27;;;;;;;167.00;59.70;;;;;;;-5.21;75.06;99286.08;104669;1274;112316;-66
2023/03/02 01:40:54;;;;;;;197.10;61.90;;;;;;;-5.25;75.24;99283.33;104899;1274;100262;-67
2023/03/02 01:43:21;;;;;;;194.40;61.40;;;;;;;-5.29;75.38;99284.78;104864;1263;99205;-65
2023/03/02 01:46:03;;;;;;;184.10;62.90;;;;;;;-5.32;75.68;99286.87;104903;1261;98821;-64
2023/03/02 01:48:43;;;;;;;175.50;62.40;;;;;;;-5.33;75.98;99280.33;104889;1263;98437;-64
2023/03/02 01:51:14;;;;;;;204.10;68.20;;;;;;;-5.33;75.95;99277.91;104576;1265;111679;-65
2023/03/02 01:53:45;;;;;;;198.70;71.00;;;;;;;-5.30;76.01;99273.48;104927;1264;99350;-64
2023/03/02 01:56:20;;;;;;;202.70;70.40;;;;;;;-5.28;76.00;99269.42;104585;1261;108098;-64
2023/03/02 01:58:51;;;;;;;202.30;68.30;;;;;;;-5.23;76.20;99271.85;104890;1262;97965;-64
2023/03/02 02:01:20;;;;;;;191.80;66.80;;;;;;;-5.15;76.16;99265.08;104851;1264;99093;-64
2023/03/02 02:03:49;;;;;;;208.10;71.60;;;;;;;-5.12;75.77;99262.42;104591;1267;110897;-64
2023/03/02 02:06:41;;;;;;;194.90;66.30;;;;;;;-5.08;75.72;99261.59;104894;1270;99151;-64
2023/03/02 02:09:13;;;;;;;183.00;64.60;;;;;;;-5.00;75.74;99258.27;104811;1273;108507;-64
2023/03/02 02:11:42;;;;;;;171.90;59.50;;;;;;;-4.95;75.61;99256.56;104630;1267;98119;-64
2023/03/02 02:14:09;;;;;;;182.00;60.60;;;;;;;-4.96;75.59;99254.62;104647;1273;97897;-65
2023/03/02 02:16:37;;;;;;;172.00;63.00;;;;;;;-4.97;75.62;99255.77;104914;1271;101463;-65
2023/03/02 02:19:30;;;;;;;186.40;63.20;;;;;;;-4.97;75.79;99251.57;104948;1264;99335;-65
2023/03/02 02:21:57;;;;;;;184.10;61.70;;;;;;;-5.00;75.73;99250.85;104639;1257;109931;-65
2023/03/02 02:24:32;;;;;;;170.00;60.30;;;;;;;-5.04;75.57;99245.65;104588;1271;99006;-65
2023/03/02 02:27:00;;;;;;;187.90;62.40;;;;;;;-5.11;75.78;99244.05;104835;1257;98689;-66
2023/03/02 02:29:34;;;;;;;177.90;60.20;;;;;;;-5.16;76.09;99243.90;104895;1271;113441;-65
2023/03/02 02:32:10;;;;;;;177.90;61.00;;;;;;;-5.19;76.02;99249.79;104626;1261;99209;-64
2023/03/02 02:34:39;;;;;;;182.10;59.70;;;;;;;-5.22;76.06;99244.72;104601;1266;107601;-64
2023/03/02 02:37:13;;;;;;;177.40;61.80;;;;;;;-5.26;75.77;99242.88;104611;1263;98126;-64
2023/03/02 02:39:45;;;;;;;196.00;67.40;;;;;;;-5.30;76.23;99242.85;104641;1268;99306;-64
2023/03/02 02:42:35;;;;;;;191.70;64.40;;;;;;;-5.34;76.38;99244.89;104622;1265;111398;-63
2023/03/02 02:45:06;;;;;;;177.10;60.70;;;;;;;-5.37;76.55;99246.21;104919;1257;99272;-64
2023/03/02 02:47:34;;;;;;;182.80;60.40;;;;;;;-5.40;76.68;99246.89;104747;1263;108349;-63
2023/03/02 02:50:01;;;;;;;183.90;61.30;;;;;;;-5.42;76.60;99246.52;104867;1264;98494;-64
2023/03/02 02:52:28;;;;;;;180.30;61.00;;;;;;;-5.45;76.73;99248.42;104964;1262;98431;-64
2023/03/02 02:54:57;;;;;;;178.40;61.10;;;;;;;-5.47;76.89;99246.97;104613;1263;111820;-64
2023/03/02 02:57:28;;;;;;;183.20;59.80;;;;;;;-5.50;76.95;99243.77;104615;1276;98840;-64
2023/03/02 02:59:59;;;;;;;183.20;61.00;;;;;;;-5.50;76.98;99246.38;104505;1276;107800;-64
2023/03/02 03:02:31;;;;;;;195.40;69.30;;;;;;;-5.50;76.77;99243.73;104809;1262;97928;-64
2023/03/02 03:05:02;;;;;;;206.10;68.60;;;;;;;-5.46;76.82;99242.16;104789;1273;98549;-63
2023/03/02 03:07:30;;;;;;;;;;;;;;;-5.43;76.79;99242.68;104538;1267;111250;-63
2023/03/02 03:10:17;;;;;;;177.20;62.90;;;;;;;-5.42;76.77;99240.19;104806;1266;99218;-65
2023/03/02 03:12:46;;;;;;;193.70;67.80;;;;;;;-5.39;77.00;99240.37;104553;1265;107198;-65
2023/03/02 03:15:14;;;;;;;191.30;67.00;;;;;;;-5.35;77.03;99238.17;104864;1272;97944;-64
2023/03/02 03:17:52;;;;;;;187.30;64.70;;;;;;;-5.30;76.96;99231.43;104735;1263;98399;-64
2023/03/02 03:20:21;;;;;;;183.30;64.60;;;;;;;-5.22;76.75;99227.25;104582;1273;111639;-64
2023/03/02 03:22:48;;;;;;;183.60;60.00;;;;;;;-5.19;76.40;99224.72;104643;1267;97986;-64
2023/03/02 03:25:15;;;;;;;150.70;56.70;;;;;;;-5.18;76.18;99225.34;104655;1261;97908;-64
2023/03/02 03:27:43;;;;;;;157.60;54.90;;;;;;;-5.21;76.01;99225.11;104795;1262;98029;-64
2023/03/02 03:30:12;;;;;;;155.80;54.00;;;;;;;-5.22;75.95;99222.96;104883;1258;97984;-64
2023/03/02 03:32:40;;;;;;;155.90;55.60;;;;;;;-5.25;76.21;99228.63;104790;1264;112761;-65
2023/03/02 03:35:10;;;;;;;166.90;55.70;;;;;;;-5.25;76.24;99227.60;104853;1261;99224;-64
2023/03/02 03:37:39;;;;;;;165.90;59.50;;;;;;;-5.28;76.28;99230.98;104854;1263;109534;-64
2023/03/02 03:40:08;;;;;;;171.10;58.80;;;;;;;-5.33;76.18;99225.30;104615;1263;97925;-64
2023/03/02 03:42:38;;;;;;;166.60;59.60;;;;;;;-5.39;76.18;99220.81;104621;1262;98136;-64
2023/03/02 03:45:07;;;;;;;165.20;59.50;;;;;;;-5.44;76.24;99222.83;104608;1273;111255;-67
2023/03/02 03:47:35;;;;;;;162.50;55.40;;;;;;;-5.48;76.32;99222.92;104730;1262;98998;-67
2023/03/02 03:50:02;;;;;;;166.30;57.80;;;;;;;-5.50;76.39;99216.33;104698;1274;107755;-65
2023/03/02 03:52:30;;;;;;;156.10;55.20;;;;;;;-5.55;76.45;99215.80;104902;1257;97929;-65
2023/03/02 03:54:59;;;;;;;154.00;54.30;;;;;;;-5.61;76.57;99209.97;104943;1271;98265;-65
2023/03/02 03:57:27;;;;;;;160.50;56.90;;;;;;;-5.65;76.69;99207.86;104467;1264;110754;-63
2023/03/02 03:59:54;;;;;;;151.60;56.00;;;;;;;-5.69;76.94;99207.20;104923;1258;99348;-64
2023/03/02 04:02:21;;;;;;;154.80;54.60;;;;;;;-5.73;76.75;99207.95;104850;1262;97914;-66
2023/03/02 04:04:49;;;;;;;158.30;56.40;;;;;;;-5.81;76.79;99210.66;104607;1264;97911;-65
2023/03/02 04:07:16;;;;;;;148.00;51.30;;;;;;;-5.88;77.09;99211.23;104619;1258;98273;-65
2023/03/02 04:09:44;;;;;;;146.50;53.80;;;;;;;-5.93;77.42;99208.89;104943;1261;97985;-64
2023/03/02 04:12:11;;;;;;;165.50;56.90;;;;;;;-5.92;77.58;99215.56;104868;1262;99178;-65
2023/03/02 04:14:38;;;;;;;181.80;63.50;;;;;;;-5.91;77.37;99211.41;104880;1264;97916;-65
2023/03/02 04:17:05;;;;;;;192.90;64.50;;;;;;;-5.89;77.25;99211.55;104589;1264;97921;-65
2023/03/02 04:19:34;;;;;;;189.00;65.00;;;;;;;-5.89;77.17;99208.19;104892;1262;97970;-65
2023/03/02 04:22:02;;;;;;;197.10;65.10;;;;;;;-5.88;77.07;99209.80;104830;1273;97909;-64
2023/03/02 04:24:30;;;;;;;187.60;62.70;;;;;;;-5.86;77.41;99204.23;104931;1262;99198;-65
2023/03/02 04:26:58;;;;;;;192.40;71.40;;;;;;;-5.87;77.27;99202.70;104650;1266;107849;-64
2023/03/02 04:29:27;;;;;;;236.50;81.20;;;;;;;-5.89;77.35;99200.30;104862;1270;98531;-64
2023/03/02 04:32:01;;;;;;;212.90;77.50;;;;;;;-5.89;77.36;99197.80;104909;1263;98303;-64
2023/03/02 04:34:32;;;;;;;233.40;82.20;;;;;;;-5.87;77.48;99194.40;104876;1262;112461;-65
2023/03/02 04:37:00;;;;;;;199.80;68.20;;;;;;;-5.86;77.50;99191.08;104906;1262;98014;-65
2023/03/02 04:39:27;;;;;;;176.10;62.40;;;;;;;-5.86;77.66;99193.14;104769;1263;98614;-65
2023/03/02 04:41:54;;;;;;;180.40;61.90;;;;;;;-5.87;77.68;99201.17;104865;1258;97917;-64
2023/03/02 04:44:21;;;;;;;164.00;60.00;;;;;;;-5.91;77.63;99200.58;104908;1260;97851;-65
2023/03/02 04:46:48;;;;;;;180.20;62.60;;;;;;;-5.91;77.95;99197.83;104856;1263;97981;-65
2023/03/02 04:49:17;;;;;;;189.30;62.60;;;;;;;-5.86;78.02;99194.37;104679;1273;98508;-65
2023/03/02 04:51:47;;;;;;;159.90;63.00;;;;;;;-5.85;77.71;99190.59;104546;1276;107599;-64
2023/03/02 04:54:24;;;;;;;166.20;61.30;;;;;;;-5.86;77.75;99188.21;104608;1260;99132;-65
2023/03/02 04:56:52;;;;;;;161.20;59.10;;;;;;;-5.87;77.73;99186.16;104642;1266;99658;-65
2023/03/02 04:59:27;;;;;;;171.90;61.70;;;;;;;-5.88;77.74;99185.77;104597;1263;111166;-64
2023/03/02 05:02:00;;;;;;;202.90;67.80;;;;;;;-5.92;77.74;99182.99;104776;1279;99197;-65
2023/03/02 05:04:31;;;;;;;186.80;69.30;;;;;;;-5.95;77.67;99183.45;104438;1268;107593;-64
2023/03/02 05:06:59;;;;;;;195.60;70.50;;;;;;;-6.01;77.52;99188.38;104389;1265;97969;-65
2023/03/02 05:09:28;;;;;;;207.20;76.30;;;;;;;-6.06;77.65;99189.30;104824;1264;98289;-65
2023/03/02 05:11:57;;;;;;;221.50;75.60;;;;;;;-6.11;77.85;99189.54;104985;1271;112215;-65
2023/03/02 05:14:26;;;;;;;226.80;76.80;;;;;;;-6.14;77.98;99191.81;104864;1263;99344;-65
2023/03/02 05:16:53;;;;;;;210.10;74.10;;;;;;;-6.16;78.12;99190.82;104662;1266;108211;-65
2023/03/02 05:19:20;;;;;;;207.60;72.00;;;;;;;-6.21;78.05;99195.86;104896;1261;98589;-65
2023/03/02 05:21:47;;;;;;;214.50;73.40;;;;;;;-6.24;78.24;99194.44;104934;1263;98830;-65
2023/03/02 05:24:14;;;;;;;269.00;87.90;;;;;;;-6.25;78.19;99197.95;104817;1271;97954;-65
2023/03/02 05:26:41;;;;;;;249.10;84.90;;;;;;;-6.24;78.03;99199.94;104834;1262;98804;-65
2023/03/02 05:29:08;;;;;;;270.10;93.70;;;;;;;-6.22;78.14;99204.52;104861;1262;98031;-66
2023/03/02 05:31:41;;;;;;;235.40;85.60;;;;;;;-6.22;78.34;99201.69;104849;1263;98802;-65
2023/03/02 05:34:12;;;;;;;238.10;83.00;;;;;;;-6.17;78.54;99198.23;104905;1258;98403;-65
2023/03/02 05:36:42;;;;;;;220.20;75.10;;;;;;;-6.13;78.55;99200.27;104657;1266;112100;-65
2023/03/02 05:39:09;;;;;;;209.40;75.20;;;;;;;-6.09;78.50;99197.64;104844;1277;99102;-65
2023/03/02 05:41:36;;;;;;;227.30;77.60;;;;;;;-6.02;78.77;99199.98;104630;1264;97983;-66
2023/03/02 05:44:08;;;;;;;215.20;73.40;;;;;;;-5.94;78.41;99198.44;104876;1257;97922;-65
2023/03/02 05:46:35;;;;;;;211.70;72.50;;;;;;;-5.88;78.48;99204.67;104692;1263;97948;-65
2023/03/02 05:49:03;;;;;;;171.80;59.00;;;;;;;-5.87;78.37;99199.61;104768;1262;112284;-65
2023/03/02 05:51:30;;;;;;;147.20;51.80;;;;;;;-5.89;78.42;99202.88;104905;1261;98005;-65
2023/03/02 05:53:57;;;;;;;162.80;55.30;;;;;;;-5.91;79.26;99202.67;104837;1261;98015;-65
2023/03/02 05:56:24;;;;;;;193.80;64.30;;;;;;;-5.93;79.45;99209.52;104638;1262;97902;-65
2023/03/02 05:58:51;;;;;;;187.60;64.50;;;;;;;-5.89;79.36;99204.58;104623;1257;99102;-65
2023/03/02 06:01:17;;;;;;;193.90;68.40;;;;;;;-5.86;79.30;99210.22;104791;1263;99196;-66
2023/03/02 06:03:45;;;;;;;218.20;78.20;;;;;;;-5.86;79.32;99211.91;104660;1262;98005;-65
2023/03/02 06:06:12;;;;;;;246.30;86.60;;;;;;;-5.86;79.09;99213.27;104873;1261;97928;-65
2023/03/02 06:08:41;;;;;;;260.60;88.60;;;;;;;-5.88;79.16;99212.30;104751;1261;98576;-65
2023/03/02 06:11:08;;;;;;;253.40;87.60;;;;;;;-5.89;79.13;99213.33;104831;1272;97902;-65
2023/03/02 06:13:36;;;;;;;244.20;83.80;;;;;;;-5.88;79.46;99212.88;104658;1257;99116;-65
2023/03/02 06:16:03;;;;;;;226.50;77.10;;;;;;;-5.85;79.63;99216.14;104825;1262;99755;-65
2023/03/02 06:18:31;;;;;;;222.70;78.40;;;;;;;-5.81;79.61;99216.95;104886;1274;97998;-66
2023/03/02 06:20:58;;;;;;;221.30;75.40;;;;;;;-5.77;79.58;99221.80;104753;1262;99231;-65
2023/03/02 06:23:26;;;;;;;182.80;69.30;;;;;;;-5.74;79.86;99224.82;104520;1265;99199;-65
2023/03/02 06:25:53;;;;;;;197.80;67.60;;;;;;;-5.73;80.28;99226.67;104592;1258;97918;-65
2023/03/02 06:28:20;;;;;;;209.40;71.80;;;;;;;-5.69;80.36;99228.27;104741;1275;97915;-65
2023/03/02 06:30:48;;;;;;;222.90;77.10;;;;;;;-5.61;80.08;99230.38;104704;1263;99236;-66
2023/03/02 06:33:17;;;;;;;211.40;79.70;;;;;;;-5.51;80.15;99235.14;104729;1261;97932;-65
2023/03/02 06:35:45;;;;;;;224.60;81.10;;;;;;;-5.40;80.21;99232.64;104796;1268;98929;-66
2023/03/02 06:38:12;;;;;;;212.30;74.40;;;;;;;-5.30;80.26;99235.30;104853;1263;111925;-65
2023/03/02 06:40:39;;;;;;;236.90;77.60;;;;;;;-5.18;80.14;99240.23;104802;1263;99202;-65
2023/03/02 06:43:06;;;;;;;205.80;75.40;;;;;;;-5.02;80.07;99235.08;104669;1260;97871;-65
2023/03/02 06:45:33;;;;;;;213.10;75.10;;;;;;;-4.90;80.00;99234.77;104841;1263;97969;-65
2023/03/02 06:48:01;;;;;;;214.70;78.20;;;;;;;-4.79;79.79;99229.16;104842;1262;99217;-66
2023/03/02 06:50:28;;;;;;;181.90;66.30;;;;;;;-4.67;79.86;99227.36;104907;1262;98183;-65
2023/03/02 06:52:55;;;;;;;153.30;60.30;;;;;;;-4.52;79.97;99223.89;104914;1262;97905;-64
2023/03/02 06:55:23;;;;;;;175.70;62.00;;;;;;;-4.41;79.60;99228.04;104900;1257;97986;-64
2023/03/02 06:57:50;;;;;;;166.30;64.30;;;;;;;-4.29;79.53;99223.99;104952;1262;98469;-64
2023/03/02 07:00:24;;;;;;;160.10;64.30;;;;;;;-4.20;79.41;99225.08;104863;1262;97906;-67
2023/03/02 07:02:52;;;;;;;124.90;54.30;;;;;;;-4.11;79.42;99226.58;104608;1280;110391;-65
2023/03/02 07:05:21;;;;;;;177.50;64.50;;;;;;;-4.01;79.49;99225.98;104576;1265;98221;-66
2023/03/02 07:07:48;;;;;;;191.60;72.10;;;;;;;-3.89;79.13;99226.53;104893;1262;108484;-66
2023/03/02 07:10:15;;;;;;;177.50;65.10;;;;;;;-3.78;78.85;99225.66;104836;1260;98108;-66
2023/03/02 07:12:43;;;;;;;166.20;63.30;;;;;;;-3.67;78.80;99227.36;104908;1262;97985;-66
2023/03/02 07:15:12;;;;;;;117.90;47.60;;;;;;;-3.53;78.68;99225.97;104822;1262;112271;-66
2023/03/02 07:17:42;;;;;;;182.40;65.60;;;;;;;-3.36;78.62;99225.86;104865;1262;99228;-65
2023/03/02 07:20:11;;;;;;;142.70;53.40;;;;;;;-3.18;78.44;99228.86;104860;1274;108524;-65
2023/03/02 07:22:39;;;;;;;112.30;44.00;;;;;;;-3.00;78.43;99226.77;104842;1263;98015;-65
2023/03/02 07:25:11;;;;;;;130.90;48.00;;;;;;;-2.84;77.76;99223.64;104590;1264;99295;-67
2023/03/02 07:27:47;;;;;;;134.70;51.70;;;;;;;-2.65;77.57;99221.45;104720;1262;112257;-65
2023/03/02 07:30:21;;;;;;;107.20;44.90;;;;;;;-2.44;77.41;99219.04;104550;1266;98828;-66
2023/03/02 07:32:57;;;;;;;124.30;45.50;;;;;;;-2.24;77.03;99217.40;104585;1267;108314;-67
2023/03/02 07:35:30;;;;;;;146.30;53.10;;;;;;;-2.02;76.71;99217.42;104818;1275;97995;-66
2023/03/02 07:38:01;;;;;;;156.60;53.30;;;;;;;-1.77;76.26;99219.11;104747;1262;99152;-65
2023/03/02 07:40:35;;;;;;;109.30;41.30;;;;;;;-1.51;75.83;99217.70;104859;1262;112143;-65
2023/03/02 07:43:04;;;;;;;120.00;46.80;;;;;;;-1.28;74.82;99213.80;104910;1262;98694;-65
2023/03/02 07:45:32;;;;;;;86.90;33.70;;;;;;;-1.03;74.95;99214.23;104864;1262;108536;-65
2023/03/02 07:48:00;;;;;;;93.60;34.70;;;;;;;-0.79;73.47;99210.66;104654;1262;97939;-67
2023/03/02 07:50:30;;;;;;;95.80;38.00;;;;;;;-0.62;72.83;99212.54;104662;1264;99689;-67
2023/03/02 07:52:58;;;;;;;92.30;33.40;;;;;;;-0.41;73.04;99212.20;104547;1262;111038;-68
2023/03/02 07:55:27;;;;;;;94.80;38.30;;;;;;;-0.19;72.59;99217.70;104899;1259;97969;-67
2023/03/02 07:57:54;;;;;;;94.30;37.40;;;;;;;0.14;72.83;99211.13;104643;1267;107633;-65
2023/03/02 08:00:21;;;;;;;118.10;41.10;;;;;;;0.48;71.63;99209.48;104614;1274;99304;-64
2023/03/02 08:02:48;;;;;;;97.40;38.80;;;;;;;0.72;69.63;99207.45;104884;1259;97926;-66
2023/03/02 08:05:15;;;;;;;75.40;31.30;;;;;;;0.99;69.80;99206.74;104847;1262;97929;-66
2023/03/02 08:07:46;;;;;;;76.10;28.90;;;;;;;1.27;68.90;99206.67;104877;1262;98322;-67
2023/03/02 08:10:12;;;;;;;79.20;32.10;;;;;;;1.53;68.47;99204.48;104943;1263;108444;-67
2023/03/02 08:12:41;;;;;;;64.80;28.70;;;;;;;1.83;68.07;99202.31;105007;1263;97974;-67
2023/03/02 08:15:10;;;;;;;70.80;28.10;;;;;;;2.24;67.06;99196.92;104906;1273;98094;-65
2023/03/02 08:17:37;;;;;;;78.10;32.90;;;;;;;2.56;66.20;99195.31;104698;1260;112072;-65
2023/03/02 08:20:05;;;;;;;62.10;26.60;;;;;;;2.96;65.63;99197.34;104736;1262;97938;-65
2023/03/02 08:22:32;;;;;;;77.70;29.90;;;;;;;3.27;64.70;99195.85;104565;1262;108600;-66
2023/03/02 08:25:00;;;;;;;62.80;28.60;;;;;;;3.77;64.85;99198.68;104548;1261;99199;-66
2023/03/02 08:27:27;;;;;;;68.10;30.30;;;;;;;4.28;62.69;99203.00;104645;1262;98018;-67
2023/03/02 08:29:54;;;;;;;62.70;26.40;;;;;;;4.56;60.12;99201.28;105394;1260;97896;-66
2023/03/02 08:32:21;;;;;;;98.90;37.50;;;;;;;4.72;60.32;99207.58;104890;1262;97913;-67
2023/03/02 08:34:50;;;;;;;84.00;35.40;;;;;;;5.08;60.03;99205.83;104811;1262;97932;-66
2023/03/02 08:37:18;;;;;;;73.90;34.10;;;;;;;5.52;60.53;99202.33;104914;1262;97991;-66
2023/03/02 08:39:46;;;;;;;73.90;34.00;;;;;;;6.09;59.45;99197.73;104685;1264;99320;-66
2023/03/02 08:42:13;;;;;;;59.00;29.40;;;;;;;6.60;58.12;99200.59;104969;1280;97992;-66
2023/03/02 08:44:40;;;;;;;54.60;26.00;;;;;;;6.96;57.09;99195.90;104808;1262;97982;-66
2023/03/02 08:47:07;;;;;;;45.40;22.10;;;;;;;7.18;53.27;99196.38;104684;1262;99209;-65
2023/03/02 08:49:36;;;;;;;46.90;23.60;;;;;;;7.21;53.74;99193.33;104861;1262;97956;-65
2023/03/02 08:52:04;;;;;;;49.90;24.60;;;;;;;7.58;53.68;99194.04;104642;1258;97939;-66
2023/03/02 08:54:33;;;;;;;46.70;23.40;;;;;;;7.99;52.80;99192.10;104765;1263;111214;-66
2023/03/02 08:57:01;;;;;;;45.40;23.10;;;;;;;8.32;51.16;99195.42;104601;1257;98215;-68
2023/03/02 08:59:28;;;;;;;46.40;25.20;;;;;;;8.78;50.57;99193.74;104610;1265;108170;-65
2023/03/02 09:01:58;;;;;;;34.90;19.80;;;;;;;9.21;50.49;99193.45;104934;1259;97982;-67
2023/03/02 09:04:25;;;;;;;38.40;21.00;;;;;;;9.51;48.37;99191.23;104919;1257;97910;-65
2023/03/02 09:06:52;;;;;;;40.20;21.70;;;;;;;9.35;46.22;99188.35;104866;1258;97904;-65
2023/03/02 09:09:19;;;;;;;43.00;23.70;;;;;;;9.45;47.99;99189.17;104606;1262;98021;-66
2023/03/02 09:11:46;;;;;;;45.80;23.70;;;;;;;10.02;48.80;99186.75;104694;1258;97981;-67
2023/03/02 09:14:14;;;;;;;33.20;19.30;;;;;;;10.60;46.63;99189.84;104822;1264;97938;-67
2023/03/02 09:16:41;;;;;;;32.60;18.50;;;;;;;10.87;42.52;99185.53;104677;1262;98332;-65
2023/03/02 09:19:11;;;;;;;34.80;20.50;;;;;;;10.50;40.97;99182.02;104852;1257;97993;-65
2023/03/02 09:21:38;;;;;;;34.30;21.30;;;;;;;10.27;42.46;99187.91;104635;1264;99236;-66
2023/03/02 09:24:05;;;;;;;27.40;16.10;;;;;;;10.41;42.55;99189.06;104578;1265;107609;-66
2023/03/02 09:26:33;;;;;;;28.00;18.00;;;;;;;10.50;40.27;99186.45;104803;1259;97909;-67
2023/03/02 09:29:01;;;;;;;30.30;18.00;;;;;;;10.78;40.86;99185.83;104911;1262;98250;-67
2023/03/02 09:31:28;;;;;;;32.00;18.90;;;;;;;11.09;39.80;99184.03;104718;1263;98021;-65
2023/03/02 09:33:56;;;;;;;27.60;16.80;;;;;;;11.37;38.05;99176.85;104926;1262;99120;-65
2023/03/02 09:36:25;;;;;;;28.60;16.10;;;;;;;11.28;37.51;99175.77;104942;1257;99195;-64
2023/03/02 09:38:52;;;;;;;25.00;16.10;;;;;;;11.47;37.36;99177.73;104837;1260;99210;-66
2023/03/02 09:41:19;;;;;;;31.00;17.30;;;;;;;11.61;37.33;99170.73;104780;1262;99336;-66
2023/03/02 09:43:49;;;;;;;28.30;15.90;;;;;;;11.62;36.00;99168.03;104680;1263;97964;-65
2023/03/02 09:46:32;;;;;;;23.20;14.60;;;;;;;11.64;35.68;99165.89;104725;1261;99326;-70
2023/03/02 09:49:37;;;;;;;27.00;15.10;;;;;;;11.78;35.32;99165.91;104788;1262;108592;-67
2023/03/02 09:52:33;;;;;;;25.00;15.20;;;;;;;11.96;34.83;99162.73;104748;1262;98017;-66
2023/03/02 09:55:22;;;;;;;23.80;14.30;;;;;;;11.77;34.14;99157.15;104464;1264;97907;-66
2023/03/02 09:57:50;;;;;;;23.60;14.50;;;;;;;11.74;34.43;99157.45;104630;1262;111488;-65
2023/03/02 10:00:26;;;;;;;29.90;17.20;;;;;;;11.99;34.68;99153.27;104859;1262;99128;-66
2023/03/02 10:03:02;;;;;;;29.80;17.30;;;;;;;12.12;34.00;99145.98;104570;1265;108859;-65
2023/03/02 10:05:47;;;;;;;24.30;14.20;;;;;;;12.14;32.74;99144.91;104630;1274;98287;-65
2023/03/02 10:08:19;;;;;;;22.80;12.50;;;;;;;11.80;32.62;99147.48;104666;1260;98401;-66
2023/03/02 10:10:57;;;;;;;20.40;11.70;;;;;;;11.87;33.20;99134.64;104883;1262;110931;-66
2023/03/02 10:14:07;;;;;;;19.30;10.90;;;;;;;11.81;32.23;99134.92;104684;1259;99428;-66
2023/03/02 10:16:51;;;;;;;23.20;11.80;;;;;;;11.52;32.49;99134.22;104544;1262;108807;-66
2023/03/02 10:19:31;;;;;;;25.70;13.80;;;;;;;11.27;32.87;99131.28;104527;1263;98031;-66
2023/03/02 10:22:07;;;;;;;19.10;12.40;;;;;;;11.21;32.97;99131.52;104557;1261;97935;-66
2023/03/02 10:24:45;;;;;;;24.50;12.10;;;;;;;11.27;33.18;99126.75;104486;1265;111978;-66
2023/03/02 10:27:25;;;;;;;17.60;11.00;;;;;;;11.11;32.80;99127.06;104726;1262;99375;-66
2023/03/02 10:30:05;;;;;;;35.20;16.50;;;;;;;10.96;33.24;99121.86;104399;1260;108149;-66
2023/03/02 10:32:40;;;;;;;27.80;15.40;;;;;;;11.11;33.42;99123.66;104527;1266;98082;-66
2023/03/02 10:35:19;;;;;;;18.10;10.40;;;;;;;11.29;33.00;99116.86;104749;1265;97928;-69
2023/03/02 10:37:47;;;;;;;16.70;10.00;;;;;;;11.41;33.14;99114.80;104852;1262;112238;-65
2023/03/02 10:40:49;;;;;;;21.00;12.20;;;;;;;11.89;32.82;99111.63;104760;1262;99658;-66
2023/03/02 10:43:29;;;;;;;22.70;10.70;;;;;;;12.16;31.98;99117.83;104817;1264;107341;-65
2023/03/02 10:46:02;;;;;;;18.90;9.80;;;;;;;12.29;31.81;99110.02;104819;1262;97918;-65
2023/03/02 10:48:30;;;;;;;25.70;14.40;;;;;;;11.79;31.23;99105.61;104827;1262;99202;-67
2023/03/02 10:50:59;;;;;;;15.10;8.60;;;;;;;11.67;31.73;99103.36;104819;1262;111292;-66
2023/03/02 10:53:27;;;;;;;14.60;8.00;;;;;;;11.63;31.24;99093.08;104504;1265;98158;-67
2023/03/02 10:55:57;;;;;;;13.60;8.20;;;;;;;11.28;31.58;99094.05;104628;1260;107844;-67
2023/03/02 10:58:31;;;;;;;12.80;8.30;;;;;;;11.06;31.80;99089.64;104625;1265;98053;-67
2023/03/02 11:01:04;;;;;;;18.00;9.70;;;;;;;11.00;31.69;99086.67;104735;1262;97998;-67
2023/03/02 11:03:33;;;;;;;13.80;8.70;;;;;;;10.97;32.34;99082.31;104560;1264;112068;-66
2023/03/02 11:06:16;;;;;;;26.00;13.40;;;;;;;11.11;32.23;99080.48;104764;1260;98603;-66
2023/03/02 11:08:43;;;;;;;15.30;8.50;;;;;;;11.34;31.92;99078.52;104822;1261;108752;-66
2023/03/02 11:11:21;;;;;;;14.90;9.30;;;;;;;11.43;31.77;99073.86;104961;1261;99198;-67
2023/03/02 11:13:49;;;;;;;13.90;8.30;;;;;;;11.39;31.69;99071.54;104604;1265;98172;-65
2023/03/02 11:16:16;;;;;;;19.00;10.80;;;;;;;11.38;31.63;99066.55;104632;1262;112199;-66
2023/03/02 11:19:16;;;;;;;15.70;9.90;;;;;;;11.56;32.02;99060.58;104520;1265;99113;-66